Portada
METAR-TAF:

METAR-TAF

Aeropuertos :

Pau, Francia

Aeropuerto de Pau-Pirineos

latitud: 43-23N, longitud: 000-25W, altitud: 188 m

Observación

El informe se hizo hace 20 horas y 16 minutos, a las 15:00 UTC
Viento 11 kt del noroeste
Temperatura 10°C
Humedad 93%
Presión 1018 hPa
Visibilidad 10 km o más

METAR: LFBP 201500Z AUTO 31011KT 9999 BKN009/// BKN013/// BKN044/// ///CB 10/09 Q1018 TEMPO 4000 RA BKN003 BKN012

Hora: 12:16 (11:16 UTC)

Pronóstico

El informe se hizo hace 22 horas y 32 minutos, a las 12:44 UTC
Pronóstico válido del 20 a las 12 UTC al 21 a las 12 UTC
Viento 8 kt del noroeste
Visibilidad 10 km o más
Cielo nuboso a una altura de 700 ft
Cielo nuboso a una altura de 2000 ft
Temporalmente
del 20 a las 12 UTC al 21 a las 08 UTC
Visibilidad: 4000 m
Cielo nuboso a una altura de 300 ft
Cielo nuboso a una altura de 1200 ft
lluvia

TAF: LFBP 201244Z 2012/2112 31008KT 9999 BKN007 BKN020 TEMPO 2012/2108 4000 RA BKN003 BKN012

Observaciones y pronósticos meteorológicos de más de 4000 aeropuertos (mensajes METAR y TAF).

Los puntos amarillos y rojos representan las estaciones disponibles.

Ponga el ratón en el punto deseado para ver el nombre de la estación.

Haga clic para ver las observaciones y los pronósticos meteorológicos.

Para cambiar el mapa : haga clic en los botones verdes con una cruz de color negro para hacer un zoom, en el botón verde con un guión para alejar o en las flechas verdes para mapas adyacentes.


METAR-TAF: